Time;durP1;ratioP1;P1;durP2;ratioP2;P2;SDS_P1;SDS_P2;PMS_P1;PMS_P2;Temp;Humidity;BMP_temperature;BMP_pressure;BME280_temperature;BME280_humidity;BME280_pressure;Samples;Min_cycle;Max_cycle;Signal;HPM_P1;HPM_P2
2022/09/10 00:00:54;;;;;;;11.15;8.27;;;;;;;;;;6190321;23;20026;-70
2022/09/10 00:03:21;;;;;;;17.20;9.52;;;;;;;;;;6190197;23;20029;-70
2022/09/10 00:05:47;;;;;;;14.75;8.57;;;;;;;;;;6190817;23;20034;-70
2022/09/10 00:08:13;;;;;;;16.90;9.63;;;;;;;;;;6189830;23;20022;-71
2022/09/10 00:10:40;;;;;;;16.23;9.10;;;;;;;;;;6190417;23;20032;-71
2022/09/10 00:13:08;;;;;;;18.33;8.45;;;;;;;;;;6190524;23;20080;-71
2022/09/10 00:15:38;;;;;;;12.70;8.35;;;;;;;;;;6190419;23;20021;-71
2022/09/10 00:18:05;;;;;;;12.90;7.93;;;;;;;;;;6191173;23;20033;-71
2022/09/10 00:20:31;;;;;;;10.32;6.47;;;;;;;;;;6189104;23;20085;-71
2022/09/10 00:22:57;;;;;;;10.07;6.63;;;;;;;;;;6190808;23;20489;-71
2022/09/10 00:25:24;;;;;;;13.05;7.03;;;;;;;;;;6190020;23;20029;-70
2022/09/10 00:27:50;;;;;;;14.43;7.10;;;;;;;;;;6190747;23;20029;-71
2022/09/10 00:30:17;;;;;;;13.65;6.88;;;;;;;;;;6190270;23;20441;-71
2022/09/10 00:32:43;;;;;;;11.90;6.45;;;;;;;;;;6190137;23;20029;-72
2022/09/10 00:35:10;;;;;;;10.52;6.68;;;;;;;;;;6190126;23;20029;-71
2022/09/10 00:37:36;;;;;;;15.35;7.07;;;;;;;;;;6190040;23;20030;-71
2022/09/10 00:40:03;;;;;;;18.02;7.55;;;;;;;;;;6190491;23;20080;-72
2022/09/10 00:42:29;;;;;;;11.65;7.00;;;;;;;;;;6190322;23;20061;-72
2022/09/10 00:44:57;;;;;;;17.58;7.50;;;;;;;;;;6189745;23;20029;-72
2022/09/10 00:47:27;;;;;;;11.48;7.40;;;;;;;;;;6189208;23;20025;-71
2022/09/10 00:49:56;;;;;;;14.05;6.25;;;;;;;;;;6189291;23;20025;-72
2022/09/10 00:52:22;;;;;;;14.85;7.32;;;;;;;;;;6189249;23;20034;-74
2022/09/10 00:54:49;;;;;;;14.95;7.75;;;;;;;;;;6190065;23;20025;-71
2022/09/10 00:57:17;;;;;;;14.98;7.95;;;;;;;;;;6188931;23;20025;-71
2022/09/10 00:59:46;;;;;;;15.90;8.00;;;;;;;;;;6189248;23;20084;-71
2022/09/10 01:02:13;;;;;;;12.10;7.57;;;;;;;;;;6189035;23;20419;-71
2022/09/10 01:04:41;;;;;;;12.75;8.00;;;;;;;;;;6188811;23;20092;-71
2022/09/10 01:07:09;;;;;;;15.80;8.50;;;;;;;;;;6189515;23;20030;-72
2022/09/10 01:09:36;;;;;;;10.50;7.63;;;;;;;;;;6188214;23;20482;-70
2022/09/10 01:12:05;;;;;;;15.98;8.75;;;;;;;;;;6189797;23;20061;-71
2022/09/10 01:14:51;;;;;;;11.57;7.90;;;;;;;;;;6189848;23;20120;-71
2022/09/10 01:17:18;;;;;;;13.38;8.10;;;;;;;;;;6189771;23;20475;-72
2022/09/10 01:19:57;;;;;;;15.13;8.75;;;;;;;;;;6189731;23;20088;-71
2022/09/10 01:22:42;;;;;;;13.80;8.48;;;;;;;;;;6189533;23;20026;-72
2022/09/10 01:25:08;;;;;;;16.67;9.67;;;;;;;;;;6188615;23;20517;-71
2022/09/10 01:27:40;;;;;;;16.98;8.77;;;;;;;;;;6190101;23;20030;-71
2022/09/10 01:30:14;;;;;;;14.20;9.75;;;;;;;;;;6189473;23;20029;-71
2022/09/10 01:32:59;;;;;;;12.77;8.63;;;;;;;;;;6189607;23;20471;-71
2022/09/10 01:35:29;;;;;;;14.18;9.98;;;;;;;;;;6189821;23;20025;-72
2022/09/10 01:37:58;;;;;;;15.25;10.07;;;;;;;;;;6189465;23;20024;-71
2022/09/10 01:40:28;;;;;;;12.13;9.80;;;;;;;;;;6189760;23;20070;-72
2022/09/10 01:42:59;;;;;;;14.27;9.57;;;;;;;;;;6190130;23;20025;-72
2022/09/10 01:45:26;;;;;;;16.15;10.40;;;;;;;;;;6189917;23;20558;-72
2022/09/10 01:48:11;;;;;;;18.17;10.25;;;;;;;;;;6190359;23;20075;-72
2022/09/10 01:50:44;;;;;;;17.23;10.30;;;;;;;;;;6187724;23;20029;-72
2022/09/10 01:53:17;;;;;;;18.30;11.07;;;;;;;;;;6189751;23;20029;-71
2022/09/10 01:55:46;;;;;;;16.20;10.10;;;;;;;;;;6189081;23;20037;-71
2022/09/10 01:58:22;;;;;;;14.23;10.35;;;;;;;;;;6189816;23;20059;-72
2022/09/10 02:00:56;;;;;;;18.70;11.40;;;;;;;;;;6189614;23;20085;-72
2022/09/10 02:03:25;;;;;;;18.98;11.10;;;;;;;;;;6189551;23;20056;-72
2022/09/10 02:05:52;;;;;;;16.45;11.52;;;;;;;;;;6189480;23;20034;-73
2022/09/10 02:08:22;;;;;;;16.42;12.05;;;;;;;;;;6189557;23;20033;-71
2022/09/10 02:10:58;;;;;;;17.50;12.55;;;;;;;;;;6190140;23;20081;-71
2022/09/10 02:13:28;;;;;;;17.70;10.38;;;;;;;;;;6189390;23;20033;-71
2022/09/10 02:15:55;;;;;;;20.10;10.95;;;;;;;;;;6188883;23;20029;-71
2022/09/10 02:18:22;;;;;;;17.40;12.48;;;;;;;;;;6189211;23;20032;-71
2022/09/10 02:20:50;;;;;;;18.45;11.52;;;;;;;;;;6188685;23;20030;-71
2022/09/10 02:23:17;;;;;;;17.45;11.38;;;;;;;;;;6189028;23;20026;-71
2022/09/10 02:25:44;;;;;;;20.30;12.63;;;;;;;;;;6187589;23;20025;-71
2022/09/10 02:28:10;;;;;;;19.98;13.13;;;;;;;;;;6188569;23;20298;-70
2022/09/10 02:30:37;;;;;;;19.83;12.45;;;;;;;;;;6189624;23;20030;-71
2022/09/10 02:33:03;;;;;;;22.83;12.57;;;;;;;;;;6189363;23;20034;-71
2022/09/10 02:35:30;;;;;;;19.17;13.15;;;;;;;;;;6189050;23;20026;-71
2022/09/10 02:37:57;;;;;;;19.67;13.50;;;;;;;;;;6189454;23;20033;-71
2022/09/10 02:40:23;;;;;;;18.90;13.77;;;;;;;;;;6189146;23;20094;-71
2022/09/10 02:42:49;;;;;;;22.15;14.63;;;;;;;;;;6189387;23;20104;-71
2022/09/10 02:45:16;;;;;;;22.33;14.32;;;;;;;;;;6188497;23;20426;-71
2022/09/10 02:47:42;;;;;;;22.63;14.35;;;;;;;;;;6188554;23;20431;-71
2022/09/10 02:50:08;;;;;;;24.17;15.60;;;;;;;;;;6188803;23;20029;-71
2022/09/10 02:52:35;;;;;;;22.13;15.00;;;;;;;;;;6189370;23;20807;-71
2022/09/10 02:55:01;;;;;;;18.77;14.57;;;;;;;;;;6187896;23;20057;-71
2022/09/10 02:57:27;;;;;;;22.58;14.50;;;;;;;;;;6189356;23;20354;-71
2022/09/10 02:59:55;;;;;;;24.50;15.60;;;;;;;;;;6188450;23;20038;-71
2022/09/10 03:02:22;;;;;;;24.58;17.00;;;;;;;;;;6189452;23;20471;-72
2022/09/10 03:04:48;;;;;;;20.70;16.58;;;;;;;;;;6189139;23;20025;-71
2022/09/10 03:07:18;;;;;;;21.25;16.45;;;;;;;;;;6189363;23;20475;-71
2022/09/10 03:09:45;;;;;;;21.52;15.57;;;;;;;;;;6189023;23;20030;-72
2022/09/10 03:12:14;;;;;;;16.52;14.35;;;;;;;;;;6189280;23;20033;-71
2022/09/10 03:14:41;;;;;;;21.02;15.23;;;;;;;;;;6189457;23;20504;-72
2022/09/10 03:17:08;;;;;;;24.75;17.55;;;;;;;;;;6188612;23;20486;-71
2022/09/10 03:19:34;;;;;;;19.45;15.85;;;;;;;;;;6188647;23;20038;-72
2022/09/10 03:22:01;;;;;;;24.80;17.58;;;;;;;;;;6188809;23;20117;-72
2022/09/10 03:24:27;;;;;;;24.40;17.27;;;;;;;;;;6187968;23;20033;-71
2022/09/10 03:26:53;;;;;;;23.83;17.55;;;;;;;;;;6188261;23;20497;-71
2022/09/10 03:29:21;;;;;;;21.10;16.63;;;;;;;;;;6188390;23;20088;-71
2022/09/10 03:31:50;;;;;;;20.38;16.45;;;;;;;;;;6188852;23;20026;-73
2022/09/10 03:34:17;;;;;;;21.08;16.27;;;;;;;;;;6188287;23;20040;-71
2022/09/10 03:36:46;;;;;;;24.95;17.65;;;;;;;;;;6189308;23;20029;-71
2022/09/10 03:39:13;;;;;;;23.83;18.08;;;;;;;;;;6188493;23;20080;-72
2022/09/10 03:41:39;;;;;;;23.83;16.67;;;;;;;;;;6188891;23;20058;-71
2022/09/10 03:44:05;;;;;;;21.83;16.85;;;;;;;;;;6189004;23;20079;-72
2022/09/10 03:46:32;;;;;;;24.55;18.83;;;;;;;;;;6189413;23;20034;-72
2022/09/10 03:49:01;;;;;;;20.10;16.38;;;;;;;;;;6188625;23;20463;-71
2022/09/10 03:51:28;;;;;;;28.08;18.45;;;;;;;;;;6188597;23;20032;-71
2022/09/10 03:53:54;;;;;;;23.92;18.17;;;;;;;;;;6187915;23;20033;-72
2022/09/10 03:56:21;;;;;;;24.90;18.40;;;;;;;;;;6188677;23;20029;-72
2022/09/10 03:58:50;;;;;;;22.27;17.58;;;;;;;;;;6189159;23;20459;-72
2022/09/10 04:01:17;;;;;;;20.27;17.52;;;;;;;;;;6188672;23;20025;-71
2022/09/10 04:03:44;;;;;;;26.88;18.42;;;;;;;;;;6184784;23;20084;-73
2022/09/10 04:06:13;;;;;;;21.77;15.95;;;;;;;;;;6187706;23;20486;-73
2022/09/10 04:08:39;;;;;;;22.92;17.08;;;;;;;;;;6188380;23;20025;-71
2022/09/10 04:11:05;;;;;;;26.02;18.00;;;;;;;;;;6188530;23;20030;-71
2022/09/10 04:13:32;;;;;;;23.38;16.58;;;;;;;;;;6188354;23;20089;-71
2022/09/10 04:16:01;;;;;;;23.42;17.33;;;;;;;;;;6188073;23;20558;-71
2022/09/10 04:18:28;;;;;;;25.52;17.75;;;;;;;;;;6188247;23;20029;-71
2022/09/10 04:20:55;;;;;;;21.90;16.20;;;;;;;;;;6188761;23;20033;-71
2022/09/10 04:23:21;;;;;;;22.27;16.40;;;;;;;;;;6188657;23;20059;-72
2022/09/10 04:25:48;;;;;;;25.08;16.73;;;;;;;;;;6187586;23;20033;-71
2022/09/10 04:28:15;;;;;;;23.65;16.48;;;;;;;;;;6188351;23;20036;-72
2022/09/10 04:30:43;;;;;;;24.70;17.88;;;;;;;;;;6188039;23;20030;-71
2022/09/10 04:33:10;;;;;;;25.98;16.90;;;;;;;;;;6188439;23;20037;-71
2022/09/10 04:35:38;;;;;;;23.52;17.02;;;;;;;;;;6188537;23;20463;-71
2022/09/10 04:38:05;;;;;;;22.88;17.00;;;;;;;;;;6188526;23;20452;-72
2022/09/10 04:40:31;;;;;;;20.35;15.68;;;;;;;;;;6189389;23;20033;-72
2022/09/10 04:42:57;;;;;;;20.73;15.27;;;;;;;;;;6188597;23;20030;-72
2022/09/10 04:45:24;;;;;;;23.92;16.75;;;;;;;;;;6189426;23;20034;-71
2022/09/10 04:47:51;;;;;;;24.23;17.05;;;;;;;;;;6189427;23;20450;-72
2022/09/10 04:50:18;;;;;;;22.60;17.27;;;;;;;;;;6190434;23;20034;-73
2022/09/10 04:52:44;;;;;;;22.67;16.70;;;;;;;;;;6189919;23;20459;-72
2022/09/10 04:55:10;;;;;;;22.25;16.67;;;;;;;;;;6190035;23;20033;-73
2022/09/10 04:57:37;;;;;;;25.27;17.42;;;;;;;;;;6190176;23;20073;-72
2022/09/10 05:00:08;;;;;;;21.23;16.58;;;;;;;;;;6190355;23;20030;-73
2022/09/10 05:02:36;;;;;;;19.08;15.05;;;;;;;;;;6190356;23;20475;-72
2022/09/10 05:05:02;;;;;;;20.45;16.08;;;;;;;;;;6189395;23;20100;-72
2022/09/10 05:07:29;;;;;;;23.75;15.88;;;;;;;;;;6189868;23;20032;-73
2022/09/10 05:09:56;;;;;;;24.92;16.70;;;;;;;;;;6190100;23;20025;-72
2022/09/10 05:12:23;;;;;;;19.23;15.95;;;;;;;;;;6189829;23;20034;-73
2022/09/10 05:14:49;;;;;;;20.25;15.88;;;;;;;;;;6190147;23;20037;-73
2022/09/10 05:17:15;;;;;;;18.23;15.90;;;;;;;;;;6189852;23;20447;-73
2022/09/10 05:19:41;;;;;;;19.55;14.77;;;;;;;;;;6190263;23;20052;-72
2022/09/10 05:22:08;;;;;;;22.90;14.38;;;;;;;;;;6189614;23;20036;-73
2022/09/10 05:24:34;;;;;;;20.85;15.70;;;;;;;;;;6189305;23;20029;-73
2022/09/10 05:27:01;;;;;;;20.95;16.02;;;;;;;;;;6189567;23;20026;-73
2022/09/10 05:29:27;;;;;;;19.88;16.30;;;;;;;;;;6189974;23;20033;-73
2022/09/10 05:31:53;;;;;;;23.58;16.73;;;;;;;;;;6189981;23;20033;-72
2022/09/10 05:34:20;;;;;;;20.30;15.95;;;;;;;;;;6190080;23;20033;-72
2022/09/10 05:36:47;;;;;;;22.58;17.15;;;;;;;;;;6190095;23;20047;-72
2022/09/10 05:39:14;;;;;;;20.35;16.02;;;;;;;;;;6189661;23;20034;-73
2022/09/10 05:41:42;;;;;;;24.17;15.90;;;;;;;;;;6189459;23;20021;-73
2022/09/10 05:44:08;;;;;;;24.17;17.45;;;;;;;;;;6189753;23;20033;-73
2022/09/10 05:46:34;;;;;;;21.10;15.85;;;;;;;;;;6190210;23;20030;-73
2022/09/10 05:49:00;;;;;;;23.33;17.50;;;;;;;;;;6188399;23;20086;-73
2022/09/10 05:51:29;;;;;;;21.05;16.33;;;;;;;;;;6189812;23;20037;-73
2022/09/10 05:54:01;;;;;;;23.30;17.10;;;;;;;;;;6189884;23;20987;-73
2022/09/10 05:56:27;;;;;;;21.90;17.00;;;;;;;;;;6190395;23;20030;-72
2022/09/10 05:58:54;;;;;;;22.80;16.42;;;;;;;;;;6190127;23;20033;-73
2022/09/10 06:01:20;;;;;;;25.38;17.17;;;;;;;;;;6190249;23;20030;-72
2022/09/10 06:03:47;;;;;;;24.88;17.52;;;;;;;;;;6190147;23;20475;-73
2022/09/10 06:06:13;;;;;;;21.73;16.65;;;;;;;;;;6190001;23;20033;-72
2022/09/10 06:08:40;;;;;;;22.20;18.55;;;;;;;;;;6190661;23;20029;-72
2022/09/10 06:11:06;;;;;;;22.98;17.13;;;;;;;;;;6189876;23;20034;-72
2022/09/10 06:13:33;;;;;;;20.58;15.95;;;;;;;;;;6189775;23;20029;-73
2022/09/10 06:16:00;;;;;;;25.73;18.50;;;;;;;;;;6188556;23;20029;-73
2022/09/10 06:18:26;;;;;;;28.65;18.38;;;;;;;;;;6189926;23;20089;-73
2022/09/10 06:21:06;;;;;;;21.95;17.77;;;;;;;;;;6190010;23;20030;-73
2022/09/10 06:23:32;;;;;;;22.98;18.40;;;;;;;;;;6189199;23;20029;-73
2022/09/10 06:26:07;;;;;;;26.80;17.02;;;;;;;;;;6189505;23;20030;-72
2022/09/10 06:28:33;;;;;;;19.45;16.42;;;;;;;;;;6188812;23;20029;-73
2022/09/10 06:30:59;;;;;;;21.90;18.08;;;;;;;;;;6189418;23;20451;-73
2022/09/10 06:33:26;;;;;;;21.77;16.77;;;;;;;;;;6189768;23;20029;-72
2022/09/10 06:35:59;;;;;;;21.80;16.90;;;;;;;;;;6189770;23;20080;-73
2022/09/10 06:38:32;;;;;;;20.25;17.60;;;;;;;;;;6189934;23;20411;-72
2022/09/10 06:41:00;;;;;;;23.50;17.27;;;;;;;;;;6188856;23;20032;-72
2022/09/10 06:43:30;;;;;;;22.77;17.15;;;;;;;;;;6189709;23;20854;-73
2022/09/10 06:45:57;;;;;;;27.73;18.77;;;;;;;;;;6188914;23;20080;-73
2022/09/10 06:48:27;;;;;;;22.88;18.65;;;;;;;;;;6189642;23;20029;-72
2022/09/10 06:51:13;;;;;;;21.15;18.20;;;;;;;;;;6188982;23;20033;-74
2022/09/10 06:53:40;;;;;;;25.10;18.60;;;;;;;;;;6188813;23;20061;-72
2022/09/10 06:56:08;;;;;;;21.52;17.15;;;;;;;;;;6188684;23;20029;-72
2022/09/10 06:58:35;;;;;;;25.23;16.85;;;;;;;;;;6188983;23;20029;-72
2022/09/10 07:01:06;;;;;;;22.83;18.30;;;;;;;;;;6189333;23;20025;-73
2022/09/10 07:03:38;;;;;;;23.63;18.20;;;;;;;;;;6188819;23;20104;-73
2022/09/10 07:06:09;;;;;;;22.42;16.27;;;;;;;;;;6188458;23;20029;-73
2022/09/10 07:08:36;;;;;;;20.70;16.40;;;;;;;;;;6188943;23;20096;-71
2022/09/10 07:11:03;;;;;;;22.58;17.15;;;;;;;;;;6188878;23;20125;-72
2022/09/10 07:13:30;;;;;;;24.15;18.50;;;;;;;;;;6189359;23;20506;-71
2022/09/10 07:15:56;;;;;;;24.05;17.92;;;;;;;;;;6188909;23;20026;-72
2022/09/10 07:18:24;;;;;;;25.05;18.85;;;;;;;;;;6189110;23;20034;-72
2022/09/10 07:20:51;;;;;;;27.58;18.38;;;;;;;;;;6189151;23;20764;-72
2022/09/10 07:23:18;;;;;;;23.73;18.35;;;;;;;;;;6189327;23;20029;-71
2022/09/10 07:25:45;;;;;;;25.20;18.15;;;;;;;;;;6187843;23;20105;-71
2022/09/10 07:28:13;;;;;;;22.55;16.92;;;;;;;;;;6188920;23;20033;-71
2022/09/10 07:30:40;;;;;;;25.48;18.25;;;;;;;;;;6187415;23;20029;-70
2022/09/10 07:33:06;;;;;;;23.95;19.52;;;;;;;;;;6188381;23;20463;-71
2022/09/10 07:35:36;;;;;;;27.40;18.95;;;;;;;;;;6189433;23;20399;-72
2022/09/10 07:38:03;;;;;;;22.20;17.35;;;;;;;;;;6188586;23;20934;-71
2022/09/10 07:40:30;;;;;;;23.60;16.88;;;;;;;;;;6188694;23;20025;-72
2022/09/10 07:42:58;;;;;;;25.20;18.95;;;;;;;;;;6188953;23;20025;-72
2022/09/10 07:45:25;;;;;;;21.90;17.45;;;;;;;;;;6188839;23;20034;-72
2022/09/10 07:47:51;;;;;;;26.73;19.65;;;;;;;;;;6189064;23;20076;-72
2022/09/10 07:50:18;;;;;;;25.85;18.98;;;;;;;;;;6188905;23;20930;-72
2022/09/10 07:52:44;;;;;;;23.45;18.50;;;;;;;;;;6188769;23;20065;-72
2022/09/10 07:55:12;;;;;;;18.38;16.48;;;;;;;;;;6187660;23;20493;-72
2022/09/10 07:57:38;;;;;;;19.67;13.90;;;;;;;;;;6188867;23;20479;-67
2022/09/10 08:00:06;;;;;;;475.70;134.43;;;;;;;;;;6188191;23;20029;-67
2022/09/10 08:02:32;;;;;;;109.57;36.72;;;;;;;;;;6188219;23;20084;-69
2022/09/10 08:04:59;;;;;;;76.65;26.27;;;;;;;;;;6187372;23;20485;-69
2022/09/10 08:07:25;;;;;;;55.10;24.25;;;;;;;;;;6187354;23;20442;-69
2022/09/10 08:09:51;;;;;;;33.22;20.00;;;;;;;;;;6187649;23;20472;-69
2022/09/10 08:12:18;;;;;;;46.45;22.85;;;;;;;;;;6187879;23;20498;-69
2022/09/10 08:14:44;;;;;;;32.72;20.65;;;;;;;;;;6187761;23;20057;-69
2022/09/10 08:17:10;;;;;;;24.80;17.27;;;;;;;;;;6189851;23;20029;-69
2022/09/10 08:19:36;;;;;;;23.17;18.17;;;;;;;;;;6190151;23;20029;-68
2022/09/10 08:22:03;;;;;;;35.88;21.02;;;;;;;;;;6189613;23;20033;-69
2022/09/10 08:24:30;;;;;;;25.33;19.20;;;;;;;;;;6189187;23;20029;-69
2022/09/10 08:26:56;;;;;;;25.90;19.15;;;;;;;;;;6189184;23;20074;-69
2022/09/10 08:29:22;;;;;;;28.10;18.17;;;;;;;;;;6189064;23;20490;-69
2022/09/10 08:31:48;;;;;;;31.30;19.23;;;;;;;;;;6189124;23;20033;-69
2022/09/10 08:34:15;;;;;;;45.10;23.83;;;;;;;;;;6188578;23;20029;-69
2022/09/10 08:36:41;;;;;;;56.20;26.27;;;;;;;;;;6188613;23;20479;-69
2022/09/10 08:39:08;;;;;;;24.52;19.00;;;;;;;;;;6189313;23;20033;-69
2022/09/10 08:41:37;;;;;;;25.20;18.45;;;;;;;;;;6189055;23;20118;-69
2022/09/10 08:44:15;;;;;;;23.00;17.67;;;;;;;;;;6188544;23;20081;-70
2022/09/10 08:46:55;;;;;;;24.67;18.60;;;;;;;;;;6190361;23;20329;-69
2022/09/10 08:49:30;;;;;;;23.23;18.10;;;;;;;;;;6190617;23;20057;-68
2022/09/10 08:52:00;;;;;;;39.17;22.05;;;;;;;;;;6190736;23;20034;-68
2022/09/10 08:54:33;;;;;;;24.77;17.45;;;;;;;;;;6189636;23;20084;-68
